Time;durP1;ratioP1;P1;durP2;ratioP2;P2;SDS_P1;SDS_P2;PMS_P1;PMS_P2;Temp;Humidity;BMP_temperature;BMP_pressure;BME280_temperature;BME280_humidity;BME280_pressure;Samples;Min_cycle;Max_cycle;Signal;HPM_P1;HPM_P2
2021/10/08 00:01:37;;;;;;;8.70;5.93;;;11.60;85.00;;;11.79;65.08;98694.16;5043926;28;20048;-37
2021/10/08 00:04:05;;;;;;;8.48;6.18;;;11.60;85.00;;;11.79;65.13;98699.50;5044592;28;20067;-37
2021/10/08 00:06:33;;;;;;;7.60;5.82;;;11.60;85.10;;;11.79;64.91;98701.34;5043769;28;20052;-37
2021/10/08 00:09:01;;;;;;;7.18;6.25;;;11.60;85.00;;;11.79;65.11;98699.50;5043911;28;20067;-37
2021/10/08 00:11:29;;;;;;;8.95;6.07;;;11.50;85.00;;;11.80;65.17;98697.66;5045206;28;20045;-37
2021/10/08 00:13:57;;;;;;;7.35;6.10;;;11.70;85.00;;;11.80;65.12;98695.00;5046393;28;20226;-37
2021/10/08 00:16:25;;;;;;;7.82;6.47;;;11.60;84.80;;;11.80;64.60;98695.84;5044949;28;20373;-37
2021/10/08 00:18:53;;;;;;;7.45;6.05;;;11.60;84.70;;;11.79;64.62;98701.34;5043247;28;20106;-37
2021/10/08 00:21:22;;;;;;;9.47;5.93;;;11.60;84.80;;;11.76;65.10;98697.13;5046773;28;20057;-37
2021/10/08 00:23:50;;;;;;;8.82;6.18;;;11.60;84.90;;;11.73;64.96;98689.41;5041324;28;20271;-37
2021/10/08 00:26:18;;;;;;;7.18;5.78;;;11.50;85.00;;;11.72;64.81;98690.38;5041435;28;20063;-37
2021/10/08 00:28:46;;;;;;;8.43;6.18;;;11.50;85.00;;;11.70;64.74;98694.19;5044964;28;20053;-37
2021/10/08 00:31:14;;;;;;;8.82;6.18;;;11.50;85.00;;;11.67;64.63;98683.78;5044697;28;20394;-37
2021/10/08 00:33:43;;;;;;;8.68;6.57;;;11.40;85.00;;;11.63;64.71;98686.75;5044254;28;20045;-37
2021/10/08 00:36:11;;;;;;;7.57;6.78;;;11.40;84.90;;;11.61;64.81;98682.53;5044566;28;20235;-37
2021/10/08 00:38:40;;;;;;;7.85;6.60;;;11.40;84.90;;;11.59;64.66;98682.69;5058875;28;20057;-37
2021/10/08 00:41:10;;;;;;;6.82;5.70;;;11.40;84.90;;;11.56;65.04;98684.81;5043591;28;20064;-37
2021/10/08 00:43:38;;;;;;;7.97;6.43;;;11.30;85.00;;;11.52;64.90;98684.25;5046047;28;20057;-37
2021/10/08 00:46:06;;;;;;;9.30;6.83;;;11.30;85.20;;;11.49;64.71;98689.84;5047749;28;20367;-37
2021/10/08 00:48:34;;;;;;;9.13;6.93;;;11.20;85.10;;;11.47;64.82;98683.81;5046387;28;20056;-37
2021/10/08 00:51:02;;;;;;;7.60;6.60;;;11.20;85.10;;;11.43;64.74;98688.59;5048527;28;20235;-37
2021/10/08 00:53:30;;;;;;;7.50;5.90;;;11.20;85.00;;;11.39;64.59;98678.34;5046670;28;20057;-37
2021/10/08 00:56:00;;;;;;;8.17;6.10;;;11.10;85.10;;;11.34;64.69;98678.78;5048696;28;20049;-37
2021/10/08 00:58:30;;;;;;;7.30;5.63;;;11.10;85.10;;;11.33;64.53;98689.59;5046770;28;20079;-37
2021/10/08 01:00:58;;;;;;;8.67;5.80;;;11.10;85.20;;;11.31;64.46;98683.56;5049305;28;20049;-37
2021/10/08 01:03:26;;;;;;;7.82;6.00;;;11.00;84.80;;;11.26;64.45;98680.47;5046415;28;20052;-37
2021/10/08 01:05:54;;;;;;;8.43;6.10;;;11.00;84.80;;;11.21;64.85;98679.06;5047364;28;20049;-37
2021/10/08 01:08:22;;;;;;;11.88;6.55;;;10.90;84.80;;;11.18;64.45;98690.00;5046668;28;20063;-37
2021/10/08 01:10:50;;;;;;;10.88;6.90;;;10.90;84.80;;;11.14;64.92;98680.59;5047824;28;20064;-37
2021/10/08 01:13:19;;;;;;;6.57;5.57;;;10.80;84.80;;;11.09;64.95;98685.50;5030542;28;20082;-37
2021/10/08 01:15:47;;;;;;;7.80;6.30;;;10.80;85.00;;;11.06;64.71;98680.44;5046243;28;20370;-37
2021/10/08 01:18:15;;;;;;;9.95;5.93;;;10.80;85.10;;;11.04;64.94;98674.41;5046040;28;20059;-37
2021/10/08 01:20:44;;;;;;;9.07;5.47;;;10.80;85.10;;;11.02;64.48;98671.88;5049485;28;20063;-37
2021/10/08 01:23:17;;;;;;;7.68;5.97;;;10.70;85.00;;;11.01;64.44;98677.34;5046839;28;20044;-37
2021/10/08 01:25:57;;;;;;;7.70;6.57;;;10.70;85.20;;;10.99;64.87;98666.00;5045737;28;20049;-37
2021/10/08 01:28:28;;;;;;;6.23;4.83;;;10.80;85.10;;;10.99;64.76;98676.66;5060890;28;20057;-37
2021/10/08 01:31:00;;;;;;;8.70;5.67;;;10.70;85.10;;;10.97;64.57;98670.63;5047644;28;20053;-37
2021/10/08 01:33:48;;;;;;;10.87;6.13;;;10.70;85.00;;;10.97;64.43;98674.16;5042406;28;20061;-37
2021/10/08 01:36:17;;;;;;;8.97;5.90;;;10.70;85.00;;;10.94;64.48;98671.75;5046739;28;20053;-37
2021/10/08 01:38:46;;;;;;;7.33;6.00;;;10.70;85.00;;;10.90;64.54;98669.50;5044368;28;20060;-37
2021/10/08 01:41:15;;;;;;;10.03;6.30;;;10.60;84.90;;;10.85;64.47;98664.56;5046640;28;20056;-37
2021/10/08 01:43:44;;;;;;;7.00;5.43;;;10.60;84.90;;;10.83;64.96;98669.19;5047854;28;20381;-37
2021/10/08 01:46:12;;;;;;;7.80;5.53;;;10.50;85.00;;;10.80;64.89;98661.50;5046477;28;20053;-37
2021/10/08 01:48:39;;;;;;;7.67;6.20;;;10.50;84.80;;;10.75;64.97;98653.91;5045504;28;20378;-37
2021/10/08 01:51:08;;;;;;;7.57;6.47;;;10.50;84.90;;;10.72;64.76;98661.31;5047021;28;20059;-37
2021/10/08 01:53:40;;;;;;;8.57;6.13;;;10.40;85.00;;;10.70;64.89;98655.28;5028527;28;20602;-37
2021/10/08 01:56:08;;;;;;;8.43;5.90;;;10.40;85.10;;;10.68;64.55;98659.91;5046873;28;20056;-37
2021/10/08 01:58:47;;;;;;;8.00;5.87;;;10.40;84.90;;;10.65;64.64;98661.03;5044766;28;20240;-37
2021/10/08 02:01:17;;;;;;;8.87;6.57;;;10.30;84.90;;;10.61;64.74;98663.13;5045321;28;20266;-37
2021/10/08 02:03:47;;;;;;;7.27;5.77;;;10.30;85.30;;;10.60;64.99;98666.78;5044688;28;20355;-37
2021/10/08 02:06:20;;;;;;;9.40;5.80;;;10.40;85.20;;;10.60;65.01;98666.78;5046300;28;20064;-37
2021/10/08 02:08:48;;;;;;;8.07;6.00;;;10.30;85.10;;;10.60;64.70;98664.13;5044954;28;20267;-37
2021/10/08 02:11:17;;;;;;;7.10;5.77;;;10.30;84.90;;;10.59;64.60;98666.91;5045331;28;20053;-37
2021/10/08 02:13:44;;;;;;;9.50;6.07;;;10.30;85.10;;;10.56;64.90;98665.34;5046610;28;20045;-37
2021/10/08 02:16:13;;;;;;;6.83;6.07;;;10.30;85.10;;;10.54;65.04;98671.81;5044970;28;20063;-37
2021/10/08 02:18:55;;;;;;;8.23;6.43;;;10.30;85.00;;;10.50;64.84;98670.41;5042598;28;20060;-37
2021/10/08 02:21:25;;;;;;;9.90;6.23;;;10.20;84.90;;;10.46;64.78;98669.81;5045355;28;20044;-37
2021/10/08 02:23:54;;;;;;;9.97;6.20;;;10.20;85.00;;;10.46;64.51;98667.16;5043848;28;20057;-37
2021/10/08 02:26:22;;;;;;;8.43;6.63;;;10.20;85.20;;;10.47;64.90;98668.84;5047112;28;20402;-37
2021/10/08 02:28:50;;;;;;;7.67;5.97;;;10.20;85.00;;;10.47;64.56;98665.31;5045763;28;20063;-37
2021/10/08 02:31:25;;;;;;;7.70;5.83;;;10.20;85.00;;;10.43;64.99;98656.78;5047273;28;20052;-37
2021/10/08 02:33:53;;;;;;;8.63;5.43;;;10.20;85.00;;;10.42;64.64;98661.25;5045102;28;20583;-37
2021/10/08 02:36:21;;;;;;;8.00;5.83;;;10.20;85.20;;;10.42;64.98;98668.41;5046224;28;20470;-37
2021/10/08 02:38:49;;;;;;;8.37;5.57;;;10.10;85.20;;;10.41;64.62;98661.38;5043163;28;20053;-37
2021/10/08 02:41:18;;;;;;;8.43;6.07;;;10.10;85.20;;;10.40;64.87;98665.03;5044948;28;20071;-37
2021/10/08 02:43:46;;;;;;;9.53;5.83;;;10.10;85.30;;;10.38;64.68;98665.16;5044284;28;20087;-37
2021/10/08 02:46:14;;;;;;;8.93;6.50;;;10.10;85.20;;;10.38;64.65;98669.66;5045181;28;20066;-37
2021/10/08 02:48:42;;;;;;;11.33;6.37;;;10.10;85.20;;;10.37;64.79;98674.16;5043476;28;20060;-37
2021/10/08 02:51:10;;;;;;;7.70;5.87;;;10.10;85.40;;;10.36;65.05;98669.78;5045825;28;20053;-37
2021/10/08 02:53:38;;;;;;;9.07;6.17;;;10.10;85.50;;;10.35;65.29;98676.09;5044029;28;20041;-37
2021/10/08 02:56:06;;;;;;;9.50;6.07;;;10.20;85.60;;;10.34;65.28;98670.91;5044381;28;20049;-37
2021/10/08 02:58:34;;;;;;;9.37;6.40;;;10.10;85.90;;;10.32;65.10;98670.19;5045119;28;20053;-37
2021/10/08 03:01:02;;;;;;;8.13;6.40;;;10.00;86.00;;;10.28;65.14;98658.94;5046775;28;20061;-37
2021/10/08 03:03:31;;;;;;;10.73;7.23;;;10.00;86.10;;;10.29;65.15;98665.94;5060297;28;20088;-37
2021/10/08 03:05:59;;;;;;;12.03;6.90;;;10.00;86.30;;;10.29;65.43;98662.44;5060851;28;20232;-37
2021/10/08 03:08:28;;;;;;;10.27;6.57;;;10.00;86.20;;;10.28;65.45;98663.44;5044332;28;20060;-37
2021/10/08 03:10:56;;;;;;;8.00;6.53;;;10.00;86.10;;;10.27;65.19;98669.72;5045141;28;20045;-37
2021/10/08 03:13:24;;;;;;;9.43;5.57;;;10.00;86.20;;;10.25;65.36;98656.53;5045722;28;20052;-37
2021/10/08 03:15:53;;;;;;;9.40;6.63;;;10.00;86.20;;;10.23;65.02;98669.97;5044376;28;20228;-37
2021/10/08 03:18:21;;;;;;;8.73;7.10;;;10.00;86.20;;;10.22;65.19;98672.78;5044968;28;20048;-37
2021/10/08 03:20:49;;;;;;;11.10;6.87;;;9.90;86.20;;;10.17;65.33;98673.19;5045609;28;20075;-37
2021/10/08 03:23:17;;;;;;;9.00;6.40;;;9.90;86.30;;;10.15;65.13;98666.31;5044252;28;20063;-37
2021/10/08 03:25:45;;;;;;;10.07;6.93;;;9.90;86.40;;;10.15;65.18;98668.97;5044326;28;20063;-37
2021/10/08 03:28:13;;;;;;;11.10;6.70;;;9.90;86.30;;;10.14;65.49;98668.13;5041762;28;20053;-37
2021/10/08 03:30:41;;;;;;;12.47;6.60;;;9.90;86.50;;;10.13;65.46;98666.44;5042866;28;20049;-37
2021/10/08 03:33:09;;;;;;;9.90;7.37;;;9.90;86.40;;;10.13;65.60;98674.41;5045686;28;20056;-37
2021/10/08 03:35:42;;;;;;;10.60;6.43;;;9.90;86.10;;;10.11;65.13;98675.53;5043449;28;20048;-37
2021/10/08 03:38:16;;;;;;;8.13;6.23;;;9.90;86.00;;;10.10;65.48;98684.47;5044445;28;20052;-37
2021/10/08 03:41:10;;;;;;;9.88;6.40;;;9.90;86.00;;;10.10;65.41;98680.03;5044609;28;20131;-37
2021/10/08 03:43:34;;;;;;;9.37;6.70;;;9.90;86.00;;;10.09;65.09;98675.66;5044658;28;20057;-37
2021/10/08 03:46:06;;;;;;;8.80;7.10;;;9.80;85.90;;;10.08;65.09;98678.44;5042496;28;20041;-37
2021/10/08 03:51:29;;;;;;;9.30;6.37;;;9.80;86.30;;;10.04;65.62;98672.56;5046014;28;20051;-37
2021/10/08 03:53:58;;;;;;;8.70;6.20;;;9.80;86.70;;;10.03;65.25;98676.19;5043564;28;20059;-37
2021/10/08 03:56:27;;;;;;;10.90;7.97;;;9.80;86.70;;;10.03;65.50;98681.53;5045094;28;20344;-37
2021/10/08 03:58:57;;;;;;;9.73;8.10;;;9.80;86.60;;;10.00;65.23;98689.75;5044668;28;20053;-37
2021/10/08 04:01:27;;;;;;;10.90;9.13;;;9.70;86.50;;;9.96;65.35;98688.34;5044119;28;20053;-37
2021/10/08 04:03:56;;;;;;;11.30;8.50;;;9.70;86.80;;;9.93;65.62;98685.97;5060049;28;20057;-37
2021/10/08 04:06:25;;;;;;;18.43;8.90;;;9.70;86.80;;;9.91;65.55;98691.41;5043270;28;20048;-37
2021/10/08 04:08:53;;;;;;;15.47;10.93;;;9.60;86.80;;;9.92;65.43;98687.75;5043211;28;20055;-37
2021/10/08 04:11:21;;;;;;;13.10;8.73;;;9.70;87.20;;;9.93;65.53;98691.28;5044876;28;20056;-37
2021/10/08 04:13:50;;;;;;;12.17;8.23;;;9.70;87.30;;;9.92;65.76;98693.06;5043339;28;20067;-37
2021/10/08 04:16:18;;;;;;;10.37;7.70;;;9.70;87.50;;;9.92;65.68;98690.41;5046015;28;20057;-37
2021/10/08 04:18:47;;;;;;;11.87;7.90;;;9.70;87.70;;;9.93;65.90;98683.31;5046954;28;20052;-37
2021/10/08 04:21:15;;;;;;;12.23;8.10;;;9.70;87.70;;;9.91;65.93;98686.09;5047916;28;20282;-37
2021/10/08 04:23:44;;;;;;;15.30;10.97;;;9.70;87.70;;;9.92;65.70;98684.25;5063198;28;20057;-37
2021/10/08 04:26:12;;;;;;;18.30;12.00;;;9.70;87.70;;;9.93;65.74;98694.78;5062455;28;20053;-37
2021/10/08 04:28:40;;;;;;;19.07;14.20;;;9.70;87.60;;;9.90;65.86;98689.69;5047396;28;20061;-37
2021/10/08 04:31:09;;;;;;;13.27;9.53;;;9.70;87.50;;;9.88;65.74;98694.31;5045446;28;20251;-37
2021/10/08 04:33:38;;;;;;;12.87;9.10;;;9.70;87.50;;;9.88;65.72;98689.00;5063282;28;20079;-37
2021/10/08 04:36:06;;;;;;;14.10;9.57;;;9.60;87.40;;;9.86;65.99;98694.44;5048181;28;20055;-37
2021/10/08 04:38:38;;;;;;;16.00;11.93;;;9.70;87.20;;;9.86;65.77;98696.25;5048566;28;20072;-37
2021/10/08 04:41:08;;;;;;;17.23;13.80;;;9.60;86.90;;;9.85;65.58;98697.25;5046504;28;20067;-37
2021/10/08 04:43:39;;;;;;;17.20;12.70;;;9.60;86.80;;;9.82;65.79;98693.03;5047891;28;20048;-37
2021/10/08 04:46:08;;;;;;;13.53;10.50;;;9.60;86.70;;;9.78;65.42;98683.63;5047012;28;20061;-37
2021/10/08 04:48:36;;;;;;;12.20;10.07;;;9.50;86.70;;;9.76;65.53;98685.56;5047399;28;20057;-37
2021/10/08 04:51:04;;;;;;;12.20;9.13;;;9.50;87.00;;;9.73;65.54;98687.63;5048455;28;20049;-37
2021/10/08 04:53:32;;;;;;;11.40;8.50;;;9.50;87.00;;;9.70;65.50;98677.28;5046860;28;20060;-37
2021/10/08 04:56:00;;;;;;;12.03;8.03;;;9.40;87.10;;;9.69;65.65;98681.72;5045654;28;20063;-37
2021/10/08 04:58:30;;;;;;;9.80;7.47;;;9.40;87.20;;;9.68;65.50;98677.41;5063608;28;20355;-37
2021/10/08 05:01:01;;;;;;;10.23;7.73;;;9.40;86.60;;;9.66;65.62;98682.84;5045792;28;20060;-37
2021/10/08 05:03:31;;;;;;;10.70;7.63;;;9.40;86.80;;;9.64;65.62;98678.66;5047014;28;20255;-37
2021/10/08 05:05:58;;;;;;;8.33;6.70;;;9.40;86.80;;;9.61;65.49;98686.88;5046855;28;20065;-37
2021/10/08 05:08:34;;;;;;;10.03;7.63;;;9.30;86.60;;;9.58;65.52;98677.34;5046848;28;20059;-37
2021/10/08 05:11:03;;;;;;;12.87;8.20;;;9.30;86.70;;;9.53;65.34;98679.53;5047203;28;20366;-37
2021/10/08 05:13:32;;;;;;;13.00;7.63;;;9.20;86.90;;;9.50;65.32;98681.59;5046391;28;20056;-37
2021/10/08 05:16:00;;;;;;;11.73;8.63;;;9.20;87.20;;;9.51;65.53;98670.00;5045022;28;20251;-37
2021/10/08 05:18:28;;;;;;;18.03;10.37;;;9.20;87.10;;;9.51;65.70;98675.34;5045660;28;20061;-37
2021/10/08 05:20:56;;;;;;;11.27;9.10;;;9.20;87.00;;;9.49;65.73;98680.78;5048140;28;20055;-37
2021/10/08 05:23:25;;;;;;;11.57;8.53;;;9.20;86.80;;;9.46;65.76;98673.06;5047310;28;20061;-37
2021/10/08 05:25:52;;;;;;;16.47;8.83;;;9.20;86.90;;;9.44;65.71;98685.63;5044564;28;20071;-37
2021/10/08 05:28:22;;;;;;;11.27;8.10;;;9.20;87.10;;;9.42;65.83;98675.13;5044115;28;20060;-37
2021/10/08 05:30:53;;;;;;;10.70;7.93;;;9.20;87.00;;;9.43;65.58;98676.81;5046122;28;20055;-36
2021/10/08 05:33:22;;;;;;;12.00;9.30;;;9.20;86.80;;;9.41;65.86;98683.22;5044961;28;20048;-37
2021/10/08 05:35:50;;;;;;;11.40;7.70;;;9.20;87.00;;;9.41;65.78;98685.91;5046920;28;20061;-36
2021/10/08 05:38:19;;;;;;;11.40;7.90;;;9.20;86.90;;;9.40;65.53;98686.84;5047669;28;20048;-36
2021/10/08 05:40:49;;;;;;;10.57;8.13;;;9.10;87.00;;;9.39;65.87;98687.84;5046836;28;20052;-36
2021/10/08 05:43:19;;;;;;;14.17;9.10;;;9.10;87.00;;;9.38;65.90;98691.44;5043499;28;20347;-36
2021/10/08 05:45:51;;;;;;;14.30;9.13;;;9.10;87.00;;;9.37;65.64;98695.09;5047036;28;20049;-36
2021/10/08 05:48:19;;;;;;;11.43;8.03;;;9.10;87.10;;;9.36;65.82;98696.06;5046156;28;20045;-37
2021/10/08 05:50:47;;;;;;;17.50;8.83;;;9.10;87.20;;;9.35;65.88;98691.72;5047877;28;20370;-37
2021/10/08 05:53:16;;;;;;;17.57;10.53;;;9.00;87.10;;;9.32;66.02;98700.78;5045601;28;20053;-37
2021/10/08 05:55:45;;;;;;;14.70;10.40;;;9.00;87.40;;;9.30;65.78;98701.88;5044061;28;20049;-37
2021/10/08 05:58:13;;;;;;;17.00;12.27;;;9.00;87.80;;;9.28;66.16;98702.00;5046654;28;20083;-37
2021/10/08 06:00:41;;;;;;;17.73;11.10;;;9.00;87.80;;;9.29;66.14;98703.72;5045963;28;20060;-37
2021/10/08 06:03:10;;;;;;;14.30;11.13;;;9.00;87.80;;;9.28;66.24;98694.03;5060839;28;20072;-36
2021/10/08 06:05:39;;;;;;;12.70;9.93;;;9.00;87.80;;;9.30;66.25;98697.41;5045512;28;20359;-37
2021/10/08 06:08:10;;;;;;;12.47;9.23;;;9.10;88.20;;;9.32;66.20;98700.78;5045734;28;20053;-37
2021/10/08 06:10:43;;;;;;;;;;;9.00;88.20;;;9.27;66.04;98698.50;5047636;28;20254;-37
2021/10/08 06:13:13;;;;;;;12.40;9.80;;;9.00;89.30;;;9.30;66.40;98697.41;5046805;28;19924;-36
2021/10/08 06:15:43;;;;;;;13.03;8.70;;;9.00;88.80;;;9.33;66.54;98705.13;5044408;28;20063;-37
2021/10/08 06:18:11;;;;;;;14.27;9.47;;;9.10;89.00;;;9.33;66.61;98699.81;5046072;28;20059;-37
2021/10/08 06:20:41;;;;;;;12.27;9.07;;;9.10;88.80;;;9.36;66.64;98712.00;5046569;28;20052;-37
2021/10/08 06:23:12;;;;;;;12.83;10.17;;;9.20;88.70;;;9.37;66.67;98703.91;5045230;28;20048;-37
2021/10/08 06:25:40;;;;;;;12.73;9.70;;;9.10;88.80;;;9.37;66.58;98708.38;5043973;28;20091;-36
2021/10/08 06:28:11;;;;;;;12.83;9.80;;;9.10;88.90;;;9.38;66.80;98705.59;5043648;28;20076;-36
2021/10/08 06:30:39;;;;;;;12.67;9.77;;;9.10;89.60;;;9.42;66.84;98709.69;5044372;28;20052;-37
2021/10/08 06:33:08;;;;;;;14.50;10.03;;;9.20;89.70;;;9.43;66.74;98708.72;5044671;28;20063;-36
2021/10/08 06:35:38;;;;;;;13.47;10.10;;;9.20;89.70;;;9.44;67.06;98715.72;5046520;28;20080;-37
2021/10/08 06:38:08;;;;;;;15.53;10.30;;;9.20;90.20;;;9.45;67.09;98712.06;5044519;28;20052;-37
2021/10/08 06:40:38;;;;;;;17.13;10.60;;;9.20;90.40;;;9.48;67.02;98712.78;5043675;28;20060;-37
2021/10/08 06:43:09;;;;;;;15.37;9.57;;;9.30;90.80;;;9.52;67.44;98712.44;5045196;28;20066;-37
2021/10/08 06:45:50;;;;;;;18.57;11.17;;;9.40;90.80;;;9.57;67.44;98707.53;5044466;28;20813;-37
2021/10/08 06:48:19;;;;;;;16.00;10.67;;;9.40;90.80;;;9.55;67.41;98711.31;5043428;28;20063;-37
2021/10/08 06:50:48;;;;;;;13.73;10.87;;;9.40;91.40;;;9.53;67.39;98710.59;5046678;28;20060;-37
2021/10/08 06:53:17;;;;;;;14.90;10.60;;;9.30;91.80;;;9.55;67.80;98720.13;5043848;28;20497;-37
2021/10/08 06:55:48;;;;;;;16.23;11.17;;;9.30;92.00;;;9.59;67.68;98710.09;5043810;28;20057;-37
2021/10/08 06:58:24;;;;;;;14.17;10.23;;;9.40;91.90;;;9.63;67.73;98709.72;5043416;28;20057;-37
2021/10/08 07:00:54;;;;;;;15.40;10.40;;;9.40;91.80;;;9.69;67.91;98702.16;5045492;28;20067;-37
2021/10/08 07:03:23;;;;;;;15.50;10.37;;;9.60;91.80;;;9.74;67.57;98716.78;5044354;28;20060;-37
2021/10/08 07:05:51;;;;;;;15.43;10.10;;;9.60;91.60;;;9.78;67.65;98712.88;5043831;28;20059;-37
2021/10/08 07:08:20;;;;;;;14.90;11.33;;;9.60;91.50;;;9.85;67.75;98723.84;5042426;28;20228;-38
2021/10/08 07:10:48;;;;;;;13.17;10.03;;;9.80;91.60;;;9.89;67.60;98719.09;5043338;28;20061;-38
2021/10/08 07:13:16;;;;;;;15.93;10.10;;;9.80;91.40;;;9.93;67.82;98717.88;5044211;28;20307;-38
2021/10/08 07:15:44;;;;;;;12.70;9.13;;;9.80;91.10;;;9.96;67.64;98714.94;5047154;28;20057;-38
2021/10/08 07:18:15;;;;;;;14.23;10.00;;;9.90;91.10;;;10.00;67.70;98717.22;5046037;28;20063;-38
2021/10/08 07:20:45;;;;;;;12.33;9.63;;;9.90;90.90;;;10.05;67.76;98711.50;5046395;28;20347;-38
2021/10/08 07:23:13;;;;;;;15.80;10.83;;;10.00;90.80;;;10.08;67.67;98715.69;5044460;28;20052;-38
2021/10/08 07:25:41;;;;;;;14.57;10.30;;;10.00;90.80;;;10.11;67.95;98718.13;5045274;28;20065;-37
2021/10/08 07:28:09;;;;;;;13.37;9.87;;;10.00;90.70;;;10.13;68.01;98714.34;5045638;28;20060;-37
2021/10/08 07:30:37;;;;;;;16.07;10.10;;;10.10;90.90;;;10.16;67.83;98719.41;5044844;28;20053;-38
2021/10/08 07:33:05;;;;;;;18.13;10.20;;;10.10;90.80;;;10.17;67.90;98721.06;5044631;28;20045;-38
2021/10/08 07:35:32;;;;;;;14.20;9.97;;;10.10;90.90;;;10.19;68.15;98721.78;5046365;28;20063;-38
2021/10/08 07:38:00;;;;;;;15.07;10.27;;;10.10;91.00;;;10.23;68.18;98720.53;5045517;28;20052;-38
2021/10/08 07:40:29;;;;;;;13.30;10.37;;;10.20;90.90;;;10.23;68.11;98725.84;5045288;28;20053;-38
2021/10/08 07:42:57;;;;;;;14.33;10.03;;;10.20;91.00;;;10.28;68.26;98722.00;5045446;28;20045;-38
2021/10/08 07:45:24;;;;;;;15.37;10.10;;;10.20;91.00;;;10.31;68.03;98727.91;5045440;28;20049;-38
2021/10/08 07:47:52;;;;;;;15.23;9.17;;;10.20;90.90;;;10.35;68.25;98721.34;5045042;28;20075;-36
2021/10/08 07:50:20;;;;;;;15.93;10.57;;;10.30;91.00;;;10.40;68.25;98724.44;5044404;28;20053;-39
2021/10/08 07:52:48;;;;;;;15.00;10.10;;;10.30;91.10;;;10.44;68.29;98719.69;5042532;28;20067;-41
2021/10/08 07:55:16;;;;;;;13.03;9.97;;;10.40;90.90;;;10.48;68.01;98717.59;5042832;28;20316;-37
2021/10/08 07:57:44;;;;;;;15.80;10.60;;;10.50;90.90;;;10.53;68.20;98720.72;5044405;28;20045;-37
2021/10/08 08:00:13;;;;;;;15.63;9.93;;;10.50;90.90;;;10.57;67.90;98714.16;5042771;28;20048;-37
2021/10/08 08:02:42;;;;;;;15.03;9.63;;;10.50;90.90;;;10.60;68.29;98711.19;5043093;28;20048;-37
2021/10/08 08:05:11;;;;;;;13.53;9.80;;;10.50;90.90;;;10.62;68.14;98712.75;5042043;28;20047;-38
2021/10/08 08:07:40;;;;;;;14.67;10.37;;;10.60;90.90;;;10.68;67.63;98723.84;5043588;28;20059;-37
2021/10/08 08:10:09;;;;;;;13.67;8.73;;;10.60;90.80;;;10.72;68.07;98717.25;5044575;28;20468;-37
2021/10/08 08:12:37;;;;;;;15.30;10.70;;;10.60;90.80;;;10.75;68.28;98717.84;5043394;28;20052;-36
2021/10/08 08:15:06;;;;;;;13.07;9.50;;;10.70;90.90;;;10.80;68.33;98714.78;5044226;28;20239;-37
2021/10/08 08:17:34;;;;;;;12.60;8.97;;;10.80;90.70;;;10.83;68.10;98710.00;5043248;28;20048;-37
2021/10/08 08:20:05;;;;;;;13.50;10.97;;;10.80;90.50;;;10.89;68.09;98713.09;5021114;28;20057;-37
2021/10/08 08:22:33;;;;;;;14.07;9.77;;;10.90;90.70;;;10.94;68.33;98718.88;5025555;28;20059;-37
2021/10/08 08:25:05;;;;;;;12.47;8.87;;;10.90;90.40;;;10.97;68.25;98713.25;5050149;28;20251;-37
2021/10/08 08:27:33;;;;;;;14.10;9.23;;;10.90;90.60;;;11.01;68.22;98712.00;5058395;28;20053;-37
2021/10/08 08:30:04;;;;;;;12.00;9.13;;;11.00;90.50;;;11.04;68.12;98711.72;5060546;28;20049;-37
2021/10/08 08:32:34;;;;;;;13.23;10.10;;;11.00;90.40;;;11.09;67.83;98720.16;5058985;28;20057;-37
2021/10/08 08:35:05;;;;;;;12.18;9.05;;;11.10;90.50;;;11.14;68.35;98720.56;5048646;28;20259;-37
2021/10/08 08:37:33;;;;;;;16.25;9.52;;;11.10;90.50;;;11.18;68.26;98718.47;5051644;28;20045;-37
2021/10/08 08:40:05;;;;;;;16.77;9.80;;;11.20;90.30;;;11.24;68.13;98712.56;5057664;28;20259;-37
2021/10/08 08:42:35;;;;;;;14.07;9.35;;;11.20;90.10;;;11.26;67.88;98720.44;5058698;28;20060;-37
2021/10/08 08:45:05;;;;;;;14.60;9.15;;;11.20;90.30;;;11.27;68.38;98717.66;5061226;28;20139;-37
2021/10/08 08:47:34;;;;;;;12.98;9.35;;;11.30;90.50;;;11.33;68.40;98705.59;5060686;28;20267;-37
2021/10/08 08:50:04;;;;;;;15.48;9.00;;;11.30;90.30;;;11.38;68.08;98713.97;5058888;28;20383;-37
2021/10/08 08:52:32;;;;;;;11.40;8.27;;;11.40;90.10;;;11.43;68.19;98712.59;5059991;28;20064;-37
2021/10/08 08:55:00;;;;;;;14.38;9.13;;;11.50;90.20;;;11.52;68.40;98705.56;5060199;28;20235;-37
2021/10/08 08:57:28;;;;;;;11.52;9.32;;;11.60;90.00;;;11.58;68.30;98706.84;5060173;28;20049;-37
2021/10/08 09:00:00;;;;;;;11.93;8.85;;;11.70;89.70;;;11.63;68.18;98707.22;5059232;28;20258;-37
2021/10/08 09:02:30;;;;;;;13.35;9.43;;;11.70;89.70;;;11.66;68.33;98698.97;5058780;28;20051;-37
2021/10/08 09:04:59;;;;;;;12.70;9.02;;;11.70;89.60;;;11.65;68.41;98699.09;5063302;28;20053;-37
2021/10/08 09:07:36;;;;;;;12.02;8.52;;;11.70;90.20;;;11.74;68.04;98706.25;5062588;28;20033;-37
2021/10/08 09:10:14;;;;;;;12.38;9.57;;;11.80;90.90;;;11.80;68.06;98703.84;5062524;28;20053;-37
2021/10/08 09:12:44;;;;;;;10.02;8.40;;;11.90;90.10;;;11.95;68.13;98706.94;5063705;28;20044;-37
2021/10/08 09:15:13;;;;;;;12.57;8.73;;;12.10;89.80;;;12.10;68.18;98710.00;5063183;28;20059;-37
2021/10/08 09:17:41;;;;;;;11.52;7.60;;;12.30;89.50;;;12.21;67.84;98704.50;5062428;28;20259;-37
2021/10/08 09:20:18;;;;;;;10.00;7.22;;;12.50;89.10;;;12.35;68.12;98705.03;5062638;28;20048;-37
2021/10/08 09:22:49;;;;;;;11.20;7.85;;;12.60;88.70;;;12.43;68.10;98704.25;5063564;28;20242;-37
2021/10/08 09:25:30;;;;;;;11.63;8.98;;;12.60;88.50;;;12.46;67.77;98706.63;5063140;28;20052;-37
2021/10/08 09:28:01;;;;;;;13.45;8.48;;;12.60;88.70;;;12.46;67.69;98698.63;5061694;28;20302;-37
2021/10/08 09:30:50;;;;;;;11.80;8.98;;;12.50;88.30;;;12.38;67.22;98699.38;5062271;28;20049;-37
2021/10/08 09:33:22;;;;;;;11.93;8.40;;;12.40;89.00;;;12.36;67.79;98704.00;5063307;28;20047;-36
2021/10/08 09:35:56;;;;;;;9.88;8.18;;;12.30;89.50;;;12.41;67.82;98699.09;5052086;28;20041;-37
2021/10/08 09:38:25;;;;;;;13.30;8.70;;;12.40;89.60;;;12.48;68.08;98707.34;5061591;28;20052;-36
2021/10/08 09:41:01;;;;;;;10.02;7.68;;;12.50;89.60;;;12.56;67.73;98708.28;5062982;28;20052;-36
2021/10/08 09:43:31;;;;;;;10.45;9.05;;;12.60;89.20;;;12.64;67.71;98707.56;5063245;28;20045;-37
2021/10/08 09:46:05;;;;;;;11.40;7.88;;;12.70;89.20;;;12.72;67.46;98698.78;5063557;28;20053;-37
2021/10/08 09:48:42;;;;;;;12.40;8.50;;;12.90;88.40;;;12.79;67.74;98703.41;5062462;28;20067;-37
2021/10/08 09:51:17;;;;;;;12.40;8.48;;;12.90;88.50;;;12.75;67.34;98690.47;5062417;28;20244;-37
2021/10/08 09:53:48;;;;;;;9.10;7.20;;;12.90;88.00;;;12.82;67.57;98696.91;5062880;28;20048;-37
2021/10/08 09:56:39;;;;;;;11.35;7.80;;;12.90;88.70;;;12.79;67.39;98703.41;5063021;28;20049;-37
2021/10/08 09:59:14;;;;;;;11.60;6.88;;;13.00;88.20;;;12.70;66.83;98695.44;5062489;28;20055;-36
2021/10/08 10:01:45;;;;;;;12.52;7.28;;;12.80;87.70;;;12.78;67.19;98698.19;5062726;28;20331;-37
2021/10/08 10:04:12;;;;;;;12.45;7.15;;;12.80;88.80;;;12.76;67.43;98705.53;5063182;28;20044;-36
2021/10/08 10:06:42;;;;;;;9.95;7.32;;;12.80;88.70;;;12.84;67.27;98696.75;5063002;28;20090;-36
2021/10/08 10:09:10;;;;;;;10.02;6.55;;;12.90;88.70;;;12.86;67.30;98695.59;5061855;28;20246;-36
2021/10/08 10:11:39;;;;;;;8.88;6.97;;;12.90;88.20;;;12.89;67.34;98698.00;5062336;28;20387;-37
2021/10/08 10:14:08;;;;;;;8.70;6.78;;;13.00;88.10;;;12.87;66.79;98705.31;5062301;28;20059;-36
2021/10/08 10:16:38;;;;;;;12.20;6.13;;;12.90;87.70;;;12.96;67.11;98706.22;5062353;28;20045;-36
2021/10/08 10:19:07;;;;;;;9.68;6.22;;;13.00;87.70;;;12.94;66.76;98701.03;5060573;28;20373;-37
2021/10/08 10:21:36;;;;;;;10.10;6.38;;;13.00;87.00;;;12.97;66.78;98699.91;5061119;28;20048;-36
2021/10/08 10:24:06;;;;;;;11.30;7.22;;;13.00;86.80;;;12.99;66.45;98705.94;5062190;28;20049;-37
2021/10/08 10:26:34;;;;;;;8.32;5.97;;;13.00;86.50;;;13.06;66.44;98698.16;5062546;28;20055;-37
2021/10/08 10:29:04;;;;;;;10.30;7.55;;;13.20;86.70;;;13.12;66.58;98705.56;5061853;28;20365;-37
2021/10/08 10:31:35;;;;;;;10.82;7.82;;;13.20;86.50;;;13.18;66.03;98710.28;5062452;28;20055;-37